WAJJ/DJJ METAR and TAF weather

Enter ICAO airport designator
Station Type Date Time Source
WAJJ METAR 2020/07/10 22:00 UTC NOAA

WAJJ 102200Z 16006KT 9999 FEW011CB FEW011 27/24 Q1008 NOSIG


Station Type Date Time Source
WAJJ Decoded METAR 2020/07/10 22:00 UTC NOAA

Jayapura / Sentani, Indonesia (WAJJ) 02-34S 140-29E 99M
Jul 10, 2020 - 06:00 PM EDT / 2020.07.10 2200 UTC
Wind: from the SSE (160 degrees) at 7 MPH (6 KT):0
Visibility: greater than 7 mile(s):0
Sky conditions: mostly clear
Weather: Cumulonimbus clouds observed
Temperature: 80 F (27 C)
Dew Point: 75 F (24 C)
Relative Humidity: 83%
Pressure (altimeter): 29.77 in. Hg (1008 hPa)
ob: WAJJ 102200Z 16006KT 9999 FEW011CB FEW011 27/24 Q1008 NOSIG
cycle: 22

Station Type Date Time Source
WAJJ TAF 2013/03/11 12:00 UTC NOAA

TAF WAJJ 111100Z 1112/1212 29006KT 5000 HZ SCT016
TEMPO 1113/1121 4000 RA FEW014CB
BECMG 1200/1202 28012KT 9999
TEMPO 1207/1212 6000 RA FEW014CB

Example: see airport list